Latest Weather Observations for Grafton Airport

IDN60801

Issued at 7:12 pm EST Wednesday 12 August 2020 (issued every 10 minutes, with the page automatically refreshed every 10 minutes)

About weather observations | Map of weather stations | Latest weather observations for NSW | Other Formats
Station Details ID: 058161 Name: GRAFTON AIRPORT AWS Lat: -29.76 Lon: 153.03 Height: 25.09 m
Data from the previous 72 hours. | See also: Recent months at Grafton Airport
Date/Time
EST
Temp
°C
App
Temp
°C
Dew
Point
°C
Rel
Hum
%
Delta-T
°C
Wind Press
QNH
hPa
Press
MSL
hPa
Rain since
9am
mm
Dir  Spd
km/h
Gust
km/h
Spd
kts
Gust
kts
12/07:00pm 16.1 15.6 12.5 79 2.0 NE 7 9 4 5 1015.2 1015.2 0.0
12/06:30pm 16.7 15.8 12.7 77 2.2 NE 9 13 5 7 1014.9 1014.9 0.0
12/06:00pm 17.2 16.7 12.5 74 2.6 ENE 7 9 4 5 1014.7 1014.7 0.0
12/05:30pm 17.9 16.9 12.4 70 3.1 ENE 9 15 5 8 1014.5 1014.5 0.0
12/05:00pm 18.8 16.7 12.3 66 3.6 NE 15 19 8 10 1014.1 1014.1 0.0
12/04:30pm 19.5 16.7 11.3 59 4.5 NE 17 26 9 14 1014.1 1014.1 0.0
12/04:00pm 21.5 17.9 10.6 50 6.0 NNE 20 28 11 15 1013.8 1013.8 0.0
12/03:30pm 20.9 17.3 10.4 51 5.7 NNE 20 30 11 16 1013.8 1013.8 0.0
12/03:00pm 21.9 18.5 11.3 51 5.9 NNE 20 28 11 15 1014.2 1014.2 0.0
12/02:30pm 20.9 17.5 10.7 52 5.6 NNE 19 26 10 14 1014.5 1014.5 0.0
12/02:00pm 20.8 17.7 10.3 51 5.7 NNE 17 24 9 13 1015.1 1015.1 0.0
12/01:30pm 22.3 19.8 11.1 49 6.2 N 15 28 8 15 1015.3 1015.3 0.0
12/01:00pm 21.6 18.2 10.4 49 6.1 N 19 26 10 14 1015.8 1015.8 0.0
12/12:30pm 21.1 17.7 11.2 53 5.5 N 20 28 11 15 1016.4 1016.4 0.0
12/12:00pm 19.8 15.9 10.8 56 4.9 N 22 28 12 15 1017.3 1017.3 0.0
12/11:30am 19.6 18.0 12.8 65 3.8 NNE 13 20 7 11 1018.0 1018.0 0.0
12/11:00am 18.3 18.1 13.6 74 2.7 NNE 7 11 4 6 1018.8 1018.8 0.0
12/10:30am 17.0 16.5 13.9 82 1.8 NNE 9 11 5 6 1019.5 1019.5 0.0
12/10:00am 16.6 16.8 14.8 89 1.0 NNE 7 11 4 6 1020.0 1020.0 0.0
12/09:30am 16.0 16.6 15.4 96 0.3 N 6 9 3 5 1020.3 1020.3 0.0
12/09:00am 13.5 14.3 12.7 95 0.4 CALM 0 0 0 0 1020.8 1020.8 0.0
12/08:30am 12.8 13.4 12.0 95 0.4 CALM 0 0 0 0 1020.3 1020.3 0.0
12/08:00am 12.0 12.4 11.2 95 0.4 CALM 0 0 0 0 1020.1 1020.1 0.0
12/07:30am 11.5 11.7 10.6 94 0.5 CALM 0 0 0 0 1020.2 1020.2 0.0
12/07:00am 11.1 11.2 10.0 93 0.6 CALM 0 0 0 0 1019.9 1019.9 0.0
12/06:30am 10.7 10.6 9.5 92 0.6 CALM 0 0 0 0 1019.3 1019.3 0.0
12/06:00am 10.8 10.0 9.6 92 0.6 S 4 7 2 4 1018.8 1018.8 0.0
12/05:30am 11.1 11.1 9.7 91 0.7 CALM 0 0 0 0 1018.8 1018.8 0.0
12/05:00am 11.0 10.1 9.4 90 0.8 SSW 4 6 2 3 1018.6 1018.6 0.0
12/04:30am 11.1 10.6 9.4 89 0.9 SE 2 9 1 5 1018.3 1018.3 0.0
12/04:00am 11.5 11.5 9.8 89 0.9 CALM 0 0 0 0 1018.2 1018.2 0.0
12/03:30am 11.6 11.6 9.7 88 1.0 CALM 0 0 0 0 1018.5 1018.5 0.0
12/03:00am 11.9 10.8 9.8 87 1.1 ESE 6 9 3 5 1018.2 1018.2 0.0
12/02:30am 12.2 12.2 9.9 86 1.2 CALM 0 0 0 0 1019.1 1019.1 0.0
12/02:00am 12.5 12.6 10.0 85 1.3 CALM 0 0 0 0 1019.1 1019.1 0.0
12/01:30am 12.6 12.7 10.0 84 1.3 CALM 0 0 0 0 1019.3 1019.3 0.0
12/01:00am 12.8 12.9 10.2 84 1.3 CALM 0 0 0 0 1019.3 1019.3 0.0
12/12:30am 13.1 13.3 10.5 84 1.4 CALM 0 0 0 0 1019.2 1019.2 0.0
12/12:00am 13.5 13.0 10.9 84 1.4 S 4 7 2 4 1019.1 1019.1 0.0
 
Date/Time
EST
Temp
°C
App
Temp
°C
Dew
Point
°C
Rel
Hum
%
Delta-T
°C
Wind Press
QNH
hPa
Press
MSL
hPa
Rain since
9am
mm
Dir  Spd
km/h
Gust
km/h
Spd
kts
Gust
kts
11/11:30pm 13.4 12.5 10.8 84 1.4 SSW 6 6 3 3 1019.2 1019.2 0.0
11/11:00pm 13.1 12.2 10.6 85 1.3 SSW 6 7 3 4 1019.2 1019.2 0.0
11/10:30pm 12.9 12.7 10.4 85 1.3 W 2 6 1 3 1019.4 1019.4 0.0
11/10:00pm 12.7 11.6 10.1 84 1.3 SSW 6 7 3 4 1019.1 1019.1 0.0
11/09:30pm 12.7 12.3 9.9 83 1.4 SSW 2 7 1 4 1019.4 1019.4 0.0
11/09:00pm 12.9 13.0 10.1 83 1.4 CALM 0 0 0 0 1019.6 1019.6 0.0
11/08:30pm 12.7 12.7 9.7 82 1.5 CALM 0 0 0 0 1019.5 1019.5 0.0
11/08:00pm 12.7 12.6 9.3 80 1.7 CALM 0 0 0 0 1019.4 1019.4 0.0
11/07:30pm 12.2 11.8 8.1 76 2.0 CALM 0 0 0 0 1019.2 1019.2 0.0
11/07:00pm 12.7 12.2 8.0 73 2.3 CALM 0 0 0 0 1019.0 1019.0 0.0
11/06:30pm 13.7 12.5 7.9 68 2.9 S 4 9 2 5 1018.7 1018.7 0.0
11/06:00pm 15.1 13.5 8.8 66 3.2 SSE 7 13 4 7 1018.4 1018.4 0.0
11/05:30pm 15.8 14.2 8.8 63 3.6 SE 7 11 4 6 1018.1 1018.1 0.0
11/05:00pm 17.0 14.8 9.2 60 4.0 ESE 11 19 6 10 1017.5 1017.5 0.0
11/04:30pm 18.6 16.2 8.8 53 5.1 SE 11 17 6 9 1017.2 1017.2 0.0
11/04:00pm 19.1 16.4 9.0 52 5.3 ESE 13 17 7 9 1017.2 1017.2 0.0
11/03:30pm 18.8 16.7 9.6 55 4.9 SE 11 19 6 10 1017.1 1017.1 0.0
11/03:00pm 18.8 16.4 8.5 51 5.3 ESE 11 19 6 10 1017.2 1017.2 0.0
11/02:30pm 19.4 16.0 7.8 47 6.0 SSE 15 20 8 11 1017.2 1017.2 0.0
11/02:00pm 19.4 16.0 7.5 46 6.1 S 15 30 8 16 1017.1 1017.1 0.0
11/01:30pm 20.4 17.7 9.0 48 6.0 S 13 19 7 10 1017.1 1017.1 0.0
11/01:00pm 20.2 16.6 8.5 47 6.1 SSE 17 28 9 15 1017.3 1017.3 0.0
11/12:30pm 19.7 15.7 8.4 48 5.9 SSW 19 30 10 16 1017.6 1017.6 0.0
11/12:00pm 19.7 15.6 8.7 49 5.7 S 20 33 11 18 1018.0 1018.0 0.0
11/11:30am 19.2 14.5 7.9 48 5.8 S 22 35 12 19 1018.7 1018.7 0.0
11/11:00am 19.1 13.7 8.1 49 5.7 S 26 39 14 21 1019.1 1019.1 0.0
11/10:30am 18.9 13.9 8.0 49 5.6 S 24 32 13 17 1019.3 1019.3 0.0
11/10:00am 18.8 14.7 8.5 51 5.3 S 20 37 11 20 1019.3 1019.3 0.0
11/09:30am 17.5 14.9 7.8 53 4.9 SW 11 15 6 8 1019.8 1019.8 0.0
11/09:00am 16.5 13.9 7.7 56 4.4 SW 11 17 6 9 1019.6 1019.6 0.2
11/08:30am 15.3 13.4 9.2 67 3.1 SW 9 13 5 7 1019.5 1019.5 0.2
11/08:00am 13.6 12.5 10.0 79 1.9 SW 6 7 3 4 1019.4 1019.4 0.2
11/07:30am 11.5 9.6 8.9 84 1.3 S 9 11 5 6 1019.0 1019.0 0.2
11/07:00am 9.1 7.0 6.5 84 1.2 SSW 7 9 4 5 1018.5 1018.5 0.2
11/06:30am 8.8 6.5 5.9 82 1.3 SSW 7 9 4 5 1018.0 1018.0 0.2
11/06:00am 8.9 6.6 5.6 80 1.5 S 7 9 4 5 1017.3 1017.3 0.2
11/05:30am 9.7 7.7 6.2 79 1.6 SSW 6 7 3 4 1016.8 1016.8 0.2
11/05:00am 9.7 7.4 5.9 77 1.7 SW 7 11 4 6 1016.4 1016.4 0.2
11/04:30am 9.0 6.7 5.0 76 1.8 NW 6 9 3 5 1016.0 1016.0 0.2
11/04:00am 9.9 7.6 5.9 76 1.8 WSW 7 11 4 6 1015.7 1015.7 0.2
11/03:30am 9.1 7.1 4.3 72 2.1 W 4 9 2 5 1015.6 1015.6 0.2
11/03:00am 9.9 7.3 4.3 68 2.5 SSW 7 9 4 5 1015.3 1015.3 0.2
11/02:30am 10.4 8.0 4.3 66 2.7 SW 6 9 3 5 1015.2 1015.2 0.2
11/02:00am 10.7 8.1 4.2 64 2.9 SSW 7 9 4 5 1015.4 1015.4 0.2
11/01:30am 12.5 10.1 5.4 62 3.3 SW 7 9 4 5 1015.4 1015.4 0.2
11/01:00am 12.3 9.8 5.0 61 3.4 SW 7 9 4 5 1015.4 1015.4 0.2
11/12:30am 12.5 10.0 5.0 60 3.5 SW 7 11 4 6 1015.4 1015.4 0.2
11/12:00am 12.8 9.9 4.8 58 3.7 WSW 9 11 5 6 1015.2 1015.2 0.2
 
Date/Time
EST
Temp
°C
App
Temp
°C
Dew
Point
°C
Rel
Hum
%
Delta-T
°C
Wind Press
QNH
hPa
Press
MSL
hPa
Rain since
9am
mm
Dir  Spd
km/h
Gust
km/h
Spd
kts
Gust
kts
10/11:30pm 13.4 10.1 4.8 56 4.0 SW 11 17 6 9 1015.2 1015.2 0.2
10/11:00pm 13.5 10.3 4.9 56 4.0 SW 11 15 6 8 1015.1 1015.1 0.2
10/10:30pm 13.6 10.3 4.7 55 4.1 WSW 11 19 6 10 1015.1 1015.1 0.2
10/10:00pm 13.9 10.6 4.8 54 4.2 SW 11 20 6 11 1014.9 1014.9 0.2
10/09:30pm 14.4 10.5 5.2 54 4.3 SW 15 20 8 11 1014.7 1014.7 0.2
10/09:00pm 14.1 10.6 5.5 56 4.1 SW 13 19 7 10 1014.5 1014.5 0.2
10/08:30pm 14.1 11.4 5.7 57 4.0 WSW 9 15 5 8 1014.7 1014.7 0.2
10/08:00pm 14.9 11.6 6.2 56 4.2 SW 13 19 7 10 1014.3 1014.3 0.2
10/07:30pm 15.0 11.7 6.3 56 4.2 SW 13 22 7 12 1013.9 1013.9 0.2
10/07:00pm 15.2 11.5 6.5 56 4.2 SSW 15 24 8 13 1013.4 1013.4 0.2
10/06:30pm 15.0 11.8 6.8 58 4.0 SW 13 22 7 12 1012.9 1012.9 0.2
10/06:00pm 15.4 10.9 6.9 57 4.2 SW 20 32 11 17 1012.5 1012.5 0.2
10/05:30pm 15.6 12.2 7.6 59 4.0 SW 15 30 8 16 1012.3 1012.3 0.2
10/05:00pm 15.9 11.8 7.9 59 4.0 SW 19 28 10 15 1011.8 1011.8 0.2
10/04:30pm 16.1 11.9 8.1 59 4.0 SW 20 35 11 19 1011.4 1011.4 0.2
10/04:00pm 16.7 12.4 7.9 56 4.5 SW 20 39 11 21 1010.8 1010.8 0.2
10/03:30pm 17.4 13.3 7.7 53 4.9 SSW 19 32 10 17 1010.1 1010.1 0.2
10/03:00pm 17.4 14.2 8.5 56 4.6 SW 15 33 8 18 1009.8 1009.8 0.2
10/02:30pm 15.8 15.2 8.8 63 3.6 WSW 2 7 1 4 1009.8 1009.8 0.2
10/02:00pm 15.8 14.7 8.3 61 3.8 WSW 4 9 2 5 1009.9 1009.9 0.2
10/01:30pm 16.6 14.6 6.1 50 5.1 SSW 6 9 3 5 1009.5 1009.5 0.0
10/01:00pm 17.8 15.0 5.1 43 6.1 SE 9 15 5 8 1009.2 1009.2 0.0
10/12:30pm 17.7 15.1 4.3 41 6.3 W 7 13 4 7 1009.4 1009.4 0.0
10/12:00pm 17.8 15.3 4.7 42 6.3 WSW 7 13 4 7 1009.7 1009.7 0.0
10/11:30am 17.1 14.6 4.8 44 5.9 W 7 15 4 8 1010.1 1010.1 0.0
10/11:00am 16.1 13.2 4.8 47 5.3 SSW 9 17 5 9 1010.6 1010.6 0.0
10/10:30am 15.3 12.0 4.4 48 5.1 SW 11 19 6 10 1010.7 1010.7 0.0
10/10:00am 14.5 11.2 4.8 52 4.5 WSW 11 17 6 9 1010.8 1010.8 0.0
10/09:30am 13.5 10.6 6.6 63 3.3 SW 11 17 6 9 1010.9 1010.9 0.0
10/09:00am 12.0 10.2 7.9 76 2.0 WSW 7 11 4 6 1010.8 1010.8 0.2
10/08:30am 10.8 9.1 8.2 84 1.3 SW 7 13 4 7 1010.5 1010.5 0.2
10/08:00am 9.6 7.7 7.5 87 1.0 SSW 7 11 4 6 1010.7 1010.7 0.2
10/07:30am 7.9 5.8 5.7 86 1.0 SSW 6 9 3 5 1010.3 1010.3 0.2
10/07:00am 7.3 6.1 4.8 84 1.1 CALM 0 0 0 0 1010.1 1010.1 0.2
10/06:30am 7.4 6.2 4.7 83 1.2 CALM 0 6 0 3 1009.6 1009.6 0.2
10/06:00am 7.5 6.0 4.8 83 1.2 NE 2 7 1 4 1009.6 1009.6 0.2
10/05:30am 7.8 6.7 4.9 82 1.3 CALM 0 0 0 0 1009.3 1009.3 0.2
10/05:00am 7.6 6.4 4.6 81 1.3 CALM 0 0 0 0 1009.2 1009.2 0.2
10/04:30am 8.0 6.8 4.6 79 1.5 CALM 0 2 0 1 1009.1 1009.1 0.2
10/04:00am 7.8 6.4 3.5 74 1.8 CALM 0 0 0 0 1009.4 1009.4 0.0
10/03:30am 7.5 5.9 2.2 69 2.2 CALM 0 0 0 0 1009.4 1009.4 0.0
10/03:00am 7.2 5.4 1.5 67 2.3 CALM 0 0 0 0 1009.5 1009.5 0.0
10/02:30am 6.9 3.9 1.0 66 2.4 E 6 9 3 5 1009.6 1009.6 0.0
10/02:00am 8.3 6.3 2.1 65 2.6 NNW 2 7 1 4 1009.5 1009.5 0.0
10/01:30am 8.8 6.1 2.4 64 2.7 N 6 9 3 5 1009.6 1009.6 0.0
10/01:00am 8.8 6.0 1.9 62 2.9 N 6 9 3 5 1009.7 1009.7 0.0
10/12:30am 10.1 7.1 2.0 57 3.4 N 7 11 4 6 1010.0 1010.0 0.0
10/12:00am 10.8 7.9 2.6 57 3.5 N 7 13 4 7 1009.9 1009.9 0.0
 
Date/Time
EST
Temp
°C
App
Temp
°C
Dew
Point
°C
Rel
Hum
%
Delta-T
°C
Wind Press
QNH
hPa
Press
MSL
hPa
Rain since
9am
mm
Dir  Spd
km/h
Gust
km/h
Spd
kts
Gust
kts
09/11:30pm 10.6 7.8 3.4 61 3.2 NNW 7 13 4 7 1010.1 1010.1 0.0
09/11:00pm 10.1 7.3 2.9 61 3.1 NNW 7 13 4 7 1010.4 1010.4 0.0
09/10:30pm 9.5 6.8 2.6 62 2.9 N 6 9 3 5 1010.7 1010.7 0.0
09/10:00pm 9.9 7.1 3.0 62 3.0 NNW 7 11 4 6 1010.8 1010.8 0.0
09/09:30pm 9.7 7.0 2.6 61 3.0 NNW 6 9 3 5 1011.1 1011.1 0.0
09/09:00pm 9.8 6.9 2.4 60 3.1 NNW 7 9 4 5 1011.4 1011.4 0.0
09/08:30pm 10.4 7.4 2.0 56 3.6 N 7 9 4 5 1011.4 1011.4 0.0
09/08:00pm 11.7 8.8 2.5 53 4.0 WNW 7 13 4 7 1011.2 1011.2 0.0
09/07:30pm 11.3 8.6 2.6 55 3.8 NW 6 13 3 7 1011.3 1011.3 0.0

Other formats

Comma delimited format used in spreadsheet applications
http://www.bom.gov.au/fwo/IDN60801/IDN60801.95570.axf

JavaScript Object Notation format (JSON) in row-major order
http://www.bom.gov.au/fwo/IDN60801/IDN60801.95570.json

Data quality

Most of these data are generated automatically and are frequently updated. Quality checks on data are not normally performed. It is possible for incorrect values to appear. Refer to information at About Latest Weather Observations and please check the disclaimer before using these data.